Time;durP1;ratioP1;P1;durP2;ratioP2;P2;SDS_P1;SDS_P2;PMS_P1;PMS_P2;Temp;Humidity;BMP_temperature;BMP_pressure;BME280_temperature;BME280_humidity;BME280_pressure;Samples;Min_cycle;Max_cycle;Signal;HPM_P1;HPM_P2
2022/03/21 00:02:01;;;;;;;32.10;19.45;;;8.70;99.90;;;;;;5059834;28;20074;-75
2022/03/21 00:04:27;;;;;;;29.20;20.50;;;8.80;99.90;;;;;;5072240;28;20044;-74
2022/03/21 00:06:53;;;;;;;28.58;17.33;;;8.80;99.90;;;;;;5055400;28;20388;-75
2022/03/21 00:09:18;;;;;;;30.45;19.20;;;9.00;99.90;;;;;;5057966;28;20106;-75
2022/03/21 00:11:44;;;;;;;35.95;20.77;;;8.80;99.90;;;;;;5059151;28;20041;-75
2022/03/21 00:14:11;;;;;;;31.13;19.67;;;8.90;99.90;;;;;;5016297;28;20053;-75
2022/03/21 00:16:38;;;;;;;30.75;20.02;;;8.90;99.90;;;;;;5066942;28;20040;-75
2022/03/21 00:19:04;;;;;;;31.60;18.88;;;8.90;99.90;;;;;;5069687;28;20142;-75
2022/03/21 00:21:30;;;;;;;29.88;18.55;;;8.90;99.90;;;;;;5051903;28;20258;-75
2022/03/21 00:23:56;;;;;;;30.15;18.27;;;8.90;99.90;;;;;;5073571;28;20059;-74
2022/03/21 00:26:22;;;;;;;27.38;17.80;;;8.90;99.90;;;;;;5054048;28;20116;-74
2022/03/21 00:28:49;;;;;;;33.80;19.75;;;9.00;99.90;;;;;;5052031;28;20093;-74
2022/03/21 00:31:14;;;;;;;33.08;21.15;;;8.90;99.90;;;;;;5061774;28;20318;-74
2022/03/21 00:33:40;;;;;;;31.55;20.48;;;9.00;99.90;;;;;;5074440;28;20032;-74
2022/03/21 00:36:08;;;;;;;33.50;17.63;;;9.00;99.90;;;;;;5065037;28;20048;-75
2022/03/21 00:38:37;;;;;;;26.42;17.20;;;9.00;99.90;;;;;;5064012;28;20042;-75
2022/03/21 00:41:04;;;;;;;31.92;15.60;;;9.00;99.90;;;;;;5070523;28;20108;-75
2022/03/21 00:43:30;;;;;;;27.02;16.63;;;9.00;99.90;;;;;;5048403;28;20079;-75
2022/03/21 00:45:57;;;;;;;27.35;17.75;;;9.00;99.90;;;;;;5064751;28;20055;-75
2022/03/21 00:48:24;;;;;;;26.25;17.80;;;9.40;99.90;;;;;;5062280;28;20114;-75
2022/03/21 00:50:51;;;;;;;28.55;17.67;;;9.10;99.90;;;;;;5063232;28;20040;-75
2022/03/21 00:53:17;;;;;;;30.95;20.10;;;9.10;99.90;;;;;;5075854;28;20041;-75
2022/03/21 00:55:43;;;;;;;26.23;16.52;;;9.10;99.90;;;;;;5053354;28;20334;-75
2022/03/21 00:58:09;;;;;;;18.15;10.93;;;9.20;99.90;;;;;;5080195;28;20046;-73
2022/03/21 01:00:34;;;;;;;30.60;17.60;;;9.10;99.90;;;;;;5064003;28;20064;-74
2022/03/21 01:03:02;;;;;;;30.20;17.67;;;9.10;99.90;;;;;;5051069;28;20094;-73
2022/03/21 01:05:28;;;;;;;24.45;16.15;;;9.10;99.90;;;;;;5073363;28;20059;-73
2022/03/21 01:07:55;;;;;;;28.83;16.98;;;9.10;99.90;;;;;;5072623;28;20028;-73
2022/03/21 01:10:22;;;;;;;25.88;17.08;;;9.10;99.90;;;;;;5074042;28;20050;-73
2022/03/21 01:12:49;;;;;;;27.25;17.67;;;9.00;99.90;;;;;;5039284;28;20094;-74
2022/03/21 01:15:18;;;;;;;26.35;16.02;;;9.00;99.90;;;;;;5067955;28;20059;-74
2022/03/21 01:17:45;;;;;;;22.58;14.82;;;9.00;99.90;;;;;;5050287;28;20044;-74
2022/03/21 01:20:13;;;;;;;23.05;14.20;;;9.00;99.90;;;;;;5065643;28;20051;-74
2022/03/21 01:22:39;;;;;;;27.23;16.08;;;9.00;99.90;;;;;;5037270;28;20052;-74
2022/03/21 01:25:06;;;;;;;26.35;14.15;;;9.00;99.90;;;;;;5060213;28;20364;-75
2022/03/21 01:27:34;;;;;;;24.23;14.07;;;9.00;99.90;;;;;;5047122;28;20330;-74
2022/03/21 01:30:04;;;;;;;26.15;15.48;;;9.00;99.90;;;;;;5081590;28;20044;-74
2022/03/21 01:32:29;;;;;;;26.38;14.68;;;8.90;99.90;;;;;;5060890;28;20104;-74
2022/03/21 01:34:55;;;;;;;22.98;15.00;;;8.90;99.90;;;;;;5082056;28;20028;-74
2022/03/21 01:37:24;;;;;;;23.20;13.60;;;8.80;99.90;;;;;;5039434;28;20044;-74
2022/03/21 01:39:49;;;;;;;24.08;15.23;;;9.30;99.90;;;;;;5046886;28;20044;-73
2022/03/21 01:42:15;;;;;;;22.38;13.02;;;8.70;99.90;;;;;;5063597;28;20067;-73
2022/03/21 01:44:42;;;;;;;25.20;14.57;;;8.80;99.90;;;;;;5063921;28;20040;-74
2022/03/21 01:47:07;;;;;;;21.98;14.50;;;8.70;99.90;;;;;;5068410;28;20274;-76
2022/03/21 01:49:33;;;;;;;27.88;15.18;;;8.70;99.90;;;;;;5064252;28;20058;-73
2022/03/21 01:51:59;;;;;;;20.30;12.68;;;8.70;99.90;;;;;;5063579;28;20029;-73
2022/03/21 01:57:11;;;;;;;21.15;12.77;;;8.70;99.90;;;;;;5060160;28;20112;-73
2022/03/21 01:59:37;;;;;;;20.45;12.77;;;8.70;99.90;;;;;;5044628;28;20323;-74
2022/03/21 02:02:05;;;;;;;23.67;13.00;;;9.00;99.90;;;;;;5064848;28;20060;-74
2022/03/21 02:04:31;;;;;;;19.73;11.90;;;8.60;99.90;;;;;;5076459;28;20354;-74
2022/03/21 02:06:58;;;;;;;22.75;13.95;;;8.60;99.90;;;;;;5079972;28;20074;-73
2022/03/21 02:09:24;;;;;;;22.35;12.95;;;8.60;99.90;;;;;;5065502;28;20040;-74
2022/03/21 02:11:50;;;;;;;22.05;14.23;;;8.60;99.90;;;;;;5055657;28;20040;-74
2022/03/21 02:14:16;;;;;;;22.30;13.68;;;8.60;99.90;;;;;;5053416;28;20223;-74
2022/03/21 02:16:42;;;;;;;22.40;14.00;;;8.60;99.90;;;;;;5031089;28;20108;-74
2022/03/21 02:19:16;;;;;;;22.40;14.32;;;8.60;99.90;;;;;;5061374;28;20052;-75
2022/03/21 02:22:20;;;;;;;25.88;14.35;;;8.50;99.90;;;;;;5079334;28;20040;-75
2022/03/21 02:25:24;;;;;;;22.50;13.55;;;8.50;99.90;;;;;;5027228;28;20120;-75
2022/03/21 02:27:51;;;;;;;22.52;14.38;;;8.50;99.90;;;;;;5043259;28;20048;-75
2022/03/21 02:30:17;;;;;;;26.52;15.63;;;9.00;99.90;;;;;;5047476;28;20044;-75
2022/03/21 02:32:47;;;;;;;21.85;14.32;;;8.40;99.90;;;;;;5080010;28;20090;-75
2022/03/21 02:35:15;;;;;;;23.40;14.45;;;8.40;99.90;;;;;;5040635;28;20230;-73
2022/03/21 02:37:43;;;;;;;22.95;14.55;;;8.40;99.90;;;;;;5056818;28;20254;-74
2022/03/21 02:40:09;;;;;;;25.33;15.95;;;8.40;99.90;;;;;;5053086;28;20366;-74
2022/03/21 02:42:35;;;;;;;22.98;15.93;;;8.30;99.90;;;;;;5072730;28;20107;-75
2022/03/21 02:45:01;;;;;;;24.08;15.00;;;8.40;99.90;;;;;;5072535;28;20319;-75
2022/03/21 02:47:26;;;;;;;27.10;18.02;;;8.40;99.90;;;;;;5030448;28;20032;-75
2022/03/21 02:49:54;;;;;;;25.88;16.00;;;8.70;99.90;;;;;;5061284;28;20028;-74
2022/03/21 02:52:21;;;;;;;26.65;15.95;;;8.40;99.90;;;;;;5057915;28;20418;-75
2022/03/21 02:54:47;;;;;;;27.02;15.57;;;8.50;99.90;;;;;;5055215;28;20115;-75
2022/03/21 02:57:13;;;;;;;34.03;20.25;;;8.50;99.90;;;;;;5065908;28;20040;-75
2022/03/21 02:59:38;;;;;;;27.00;16.30;;;8.60;99.90;;;;;;5030343;28;20230;-73
2022/03/21 03:02:05;;;;;;;24.80;16.27;;;8.60;99.90;;;;;;5060988;28;20261;-73
2022/03/21 03:04:31;;;;;;;26.05;16.05;;;8.70;99.90;;;;;;5046478;28;20059;-73
2022/03/21 03:06:57;;;;;;;29.02;18.35;;;8.70;99.90;;;;;;5058402;28;20040;-73
2022/03/21 03:09:22;;;;;;;28.05;16.83;;;8.70;99.90;;;;;;5057794;28;20068;-74
2022/03/21 03:11:48;;;;;;;30.48;17.27;;;8.60;99.90;;;;;;5078381;28;20035;-73
2022/03/21 03:14:14;;;;;;;29.88;18.08;;;9.00;99.90;;;;;;5052687;28;20222;-74
2022/03/21 03:16:40;;;;;;;29.65;18.30;;;8.80;99.90;;;;;;5054157;28;20074;-74
2022/03/21 03:19:07;;;;;;;26.77;17.27;;;8.80;99.90;;;;;;5061267;28;20057;-74
2022/03/21 03:21:44;;;;;;;29.55;18.20;;;9.20;99.90;;;;;;5044438;28;21143;-76
2022/03/21 03:24:11;;;;;;;31.13;18.58;;;8.80;99.90;;;;;;5061760;28;20108;-75
2022/03/21 03:26:37;;;;;;;29.55;19.20;;;8.90;99.90;;;;;;5049519;28;20064;-74
2022/03/21 03:29:04;;;;;;;29.55;17.83;;;8.70;99.90;;;;;;5076126;28;20036;-74
2022/03/21 03:31:30;;;;;;;29.77;17.60;;;8.70;99.90;;;;;;5079662;28;20410;-75
2022/03/21 03:33:57;;;;;;;27.50;17.45;;;8.60;99.90;;;;;;5063060;28;20044;-73
2022/03/21 03:36:23;;;;;;;29.27;17.52;;;8.70;99.90;;;;;;5061201;28;20071;-73
2022/03/21 03:38:51;;;;;;;27.70;17.35;;;8.50;99.90;;;;;;5057770;28;20033;-73
2022/03/21 03:41:17;;;;;;;25.80;16.35;;;8.60;99.90;;;;;;5059811;28;20079;-74
2022/03/21 03:43:43;;;;;;;25.48;15.73;;;8.60;99.90;;;;;;5034476;28;20457;-72
2022/03/21 03:46:10;;;;;;;27.88;16.85;;;8.60;99.90;;;;;;5062256;28;20087;-74
2022/03/21 03:48:36;;;;;;;31.85;18.15;;;8.70;99.90;;;;;;5054868;28;20099;-74
2022/03/21 03:51:03;;;;;;;27.33;17.15;;;8.70;99.90;;;;;;5070318;28;20053;-74
2022/03/21 03:53:29;;;;;;;28.17;16.25;;;8.60;99.90;;;;;;5062335;28;20090;-74
2022/03/21 03:55:55;;;;;;;26.80;16.02;;;8.60;99.90;;;;;;5060811;28;20044;-74
2022/03/21 03:58:21;;;;;;;25.90;16.23;;;8.50;99.90;;;;;;5052633;28;20306;-73
2022/03/21 04:00:47;;;;;;;23.65;16.08;;;8.60;99.90;;;;;;5070362;28;20254;-73
2022/03/21 04:05:57;;;;;;;26.75;17.02;;;8.50;99.90;;;;;;5062781;28;20396;-73
2022/03/21 04:08:25;;;;;;;26.98;16.08;;;8.60;99.90;;;;;;5055494;28;20036;-75
2022/03/21 04:10:50;;;;;;;27.15;16.38;;;8.60;99.90;;;;;;5070590;28;20263;-75
2022/03/21 04:13:16;;;;;;;27.40;18.58;;;8.70;99.90;;;;;;5063763;28;20082;-74
2022/03/21 04:15:42;;;;;;;25.30;16.73;;;8.70;99.90;;;;;;5057305;28;20071;-74
2022/03/21 04:18:07;;;;;;;24.92;16.58;;;8.70;99.90;;;;;;5041967;28;20331;-73
2022/03/21 04:20:36;;;;;;;28.23;16.10;;;8.70;99.90;;;;;;5067025;28;20052;-73
2022/03/21 04:23:03;;;;;;;26.88;17.35;;;8.70;99.90;;;;;;5076881;28;20666;-74
2022/03/21 04:25:29;;;;;;;25.35;15.93;;;8.70;99.90;;;;;;5060187;28;20040;-73
2022/03/21 04:27:55;;;;;;;28.77;16.92;;;8.70;99.90;;;;;;5043993;28;20108;-74
2022/03/21 04:30:21;;;;;;;27.98;17.05;;;8.70;99.90;;;;;;5045509;28;20275;-73
2022/03/21 04:32:49;;;;;;;24.75;16.92;;;8.70;99.90;;;;;;5076015;28;20071;-73
2022/03/21 04:35:15;;;;;;;28.92;17.33;;;8.70;99.90;;;;;;5078863;28;20338;-73
2022/03/21 04:37:41;;;;;;;27.10;17.35;;;8.70;99.90;;;;;;5077073;28;20040;-73
2022/03/21 04:40:09;;;;;;;25.10;17.35;;;8.80;99.90;;;;;;5045226;28;20104;-73
2022/03/21 04:42:36;;;;;;;29.33;17.65;;;8.90;99.90;;;;;;5075348;28;20036;-75
2022/03/21 04:45:03;;;;;;;27.58;16.63;;;8.90;99.90;;;;;;5078452;28;20052;-74
2022/03/21 04:47:29;;;;;;;27.65;17.33;;;8.80;99.90;;;;;;5061480;28;20100;-74
2022/03/21 04:49:55;;;;;;;27.48;16.92;;;9.00;99.90;;;;;;5077917;28;20047;-74
2022/03/21 04:52:21;;;;;;;26.55;15.95;;;9.00;99.90;;;;;;5076657;28;20048;-74
2022/03/21 04:54:48;;;;;;;27.15;16.92;;;8.90;99.90;;;;;;5040807;28;20243;-74
2022/03/21 04:57:14;;;;;;;28.55;16.10;;;9.20;99.90;;;;;;5067909;28;20090;-74
2022/03/21 04:59:40;;;;;;;24.20;14.60;;;9.20;99.90;;;;;;5061398;28;20112;-74
2022/03/21 05:02:06;;;;;;;25.80;16.33;;;9.10;99.90;;;;;;5077971;28;20326;-74
2022/03/21 05:04:33;;;;;;;25.73;16.35;;;9.20;99.90;;;;;;5062039;28;20037;-75
2022/03/21 05:06:58;;;;;;;24.77;14.23;;;9.10;99.90;;;;;;5061562;28;20097;-74
2022/03/21 05:09:24;;;;;;;21.55;14.38;;;9.10;99.90;;;;;;5041659;28;20029;-74
2022/03/21 05:11:50;;;;;;;24.95;15.95;;;8.90;99.90;;;;;;5075434;28;20032;-74
2022/03/21 05:14:18;;;;;;;22.33;13.93;;;8.90;99.90;;;;;;5063858;28;20111;-73
2022/03/21 05:16:49;;;;;;;26.50;15.70;;;8.90;99.90;;;;;;5046478;28;20051;-72
2022/03/21 05:19:15;;;;;;;24.10;15.23;;;8.90;99.90;;;;;;5045689;28;20343;-72
2022/03/21 05:21:42;;;;;;;25.20;14.75;;;8.70;99.90;;;;;;5080939;28;20052;-72
2022/03/21 05:32:25;;;;;;;26.00;16.07;;;8.60;99.90;;;;;;5067484;28;20051;-74
2022/03/21 05:37:35;;;;;;;26.55;17.83;;;8.40;99.90;;;;;;5066585;28;20093;-73
2022/03/21 05:42:45;;;;;;;28.95;18.48;;;8.70;99.90;;;;;;5078564;28;20158;-72
2022/03/21 05:45:11;;;;;;;28.92;17.23;;;8.70;99.90;;;;;;5076208;28;20306;-72
2022/03/21 05:48:50;;;;;;;27.17;17.17;;;8.80;99.90;;;;;;5069367;28;20068;-73
2022/03/21 05:50:22;;;;;;;25.02;15.88;;;8.80;99.90;;;;;;5080394;28;20239;-72
2022/03/21 05:52:48;;;;;;;25.30;15.88;;;9.00;99.90;;;;;;5044387;28;20044;-73
2022/03/21 05:55:14;;;;;;;26.60;15.88;;;9.00;99.90;;;;;;5077557;28;20055;-74
2022/03/21 05:57:39;;;;;;;23.30;15.68;;;9.00;99.90;;;;;;5042839;28;20032;-73
2022/03/21 06:00:20;;;;;;;30.65;16.33;;;8.90;99.90;;;;;;5047620;28;20032;-73
2022/03/21 06:02:47;;;;;;;26.05;17.00;;;8.90;99.90;;;;;;5045479;28;20037;-73
2022/03/21 06:05:13;;;;;;;31.15;18.17;;;8.90;99.90;;;;;;5059287;28;20045;-73
2022/03/21 06:07:38;;;;;;;35.08;17.88;;;8.90;99.90;;;;;;5063882;28;20116;-73
2022/03/21 06:10:05;;;;;;;30.48;16.30;;;9.00;99.90;;;;;;5069559;28;20036;-73
2022/03/21 06:12:31;;;;;;;26.42;15.95;;;9.00;99.90;;;;;;5042706;28;20072;-74
2022/03/21 06:15:00;;;;;;;26.88;15.82;;;9.10;99.90;;;;;;5072590;28;20044;-74
2022/03/21 06:17:26;;;;;;;22.05;14.77;;;9.10;99.90;;;;;;5062565;28;20044;-75
2022/03/21 06:19:51;;;;;;;23.02;14.00;;;9.30;99.90;;;;;;5038684;28;20354;-74
2022/03/21 06:22:17;;;;;;;21.10;13.48;;;9.30;99.90;;;;;;5048942;28;20234;-74
2022/03/21 06:24:43;;;;;;;22.33;13.68;;;9.40;99.90;;;;;;5061182;28;20059;-75
2022/03/21 06:27:09;;;;;;;23.58;14.82;;;9.40;99.90;;;;;;5077266;28;20335;-74
2022/03/21 06:29:35;;;;;;;23.42;14.10;;;9.50;99.90;;;;;;5049888;28;20071;-75
2022/03/21 06:32:00;;;;;;;22.48;14.23;;;9.60;99.90;;;;;;5046528;28;20040;-75
2022/03/21 06:34:26;;;;;;;20.63;13.98;;;9.70;99.90;;;;;;5046022;28;20064;-75
2022/03/21 06:36:52;;;;;;;20.80;13.88;;;9.80;99.90;;;;;;5063070;28;20124;-74
2022/03/21 06:39:18;;;;;;;23.10;14.48;;;10.00;99.90;;;;;;5064572;28;20041;-71
2022/03/21 06:41:44;;;;;;;26.60;15.20;;;10.10;99.90;;;;;;5044751;28;20082;-72
2022/03/21 06:44:11;;;;;;;24.45;13.88;;;10.10;99.90;;;;;;5062489;28;20049;-75
2022/03/21 06:46:37;;;;;;;23.08;14.63;;;10.10;99.90;;;;;;5058308;28;20040;-74
2022/03/21 06:49:04;;;;;;;21.27;13.65;;;10.20;99.90;;;;;;5081177;28;20024;-75
2022/03/21 06:51:29;;;;;;;25.02;15.70;;;10.30;99.90;;;;;;5038186;28;20032;-73
2022/03/21 06:53:55;;;;;;;23.95;14.90;;;10.40;99.90;;;;;;5068232;28;20388;-73
2022/03/21 06:56:21;;;;;;;22.65;14.15;;;10.40;99.90;;;;;;5070403;28;20079;-72
2022/03/21 06:58:47;;;;;;;18.83;12.90;;;10.50;99.90;;;;;;5081007;28;20033;-73
2022/03/21 07:01:12;;;;;;;19.85;13.23;;;10.50;99.90;;;;;;5078106;28;20055;-74
2022/03/21 07:03:38;;;;;;;18.75;12.88;;;10.60;99.90;;;;;;5075698;28;20384;-74
2022/03/21 07:06:05;;;;;;;20.48;13.65;;;10.80;99.90;;;;;;5028221;28;20323;-73
2022/03/21 07:08:31;;;;;;;21.77;14.57;;;10.70;99.90;;;;;;5077080;28;20094;-73
2022/03/21 07:10:56;;;;;;;23.35;14.27;;;10.80;99.90;;;;;;5062743;28;20044;-73
2022/03/21 07:13:22;;;;;;;25.60;15.27;;;10.60;99.90;;;;;;5064624;28;20036;-73
2022/03/21 07:15:48;;;;;;;21.88;14.25;;;10.70;99.90;;;;;;5053825;28;20078;-74
2022/03/21 07:18:14;;;;;;;23.45;14.15;;;10.70;99.90;;;;;;5058473;28;20036;-74
2022/03/21 07:20:43;;;;;;;24.23;14.52;;;10.50;99.90;;;;;;5052167;28;20044;-69
2022/03/21 07:23:08;;;;;;;22.63;14.13;;;10.50;99.90;;;;;;5061695;28;20071;-75
2022/03/21 07:25:34;;;;;;;23.90;14.48;;;10.60;99.90;;;;;;5076620;28;20028;-75
2022/03/21 07:28:00;;;;;;;23.25;14.50;;;10.40;99.90;;;;;;5051407;28;20317;-74
2022/03/21 07:30:26;;;;;;;23.08;14.88;;;10.40;99.90;;;;;;5053419;28;20227;-73
2022/03/21 07:32:52;;;;;;;24.38;15.93;;;10.50;99.90;;;;;;5069740;28;20044;-75
2022/03/21 07:35:18;;;;;;;22.55;16.15;;;10.60;99.90;;;;;;5069056;28;20028;-75
2022/03/21 07:37:50;;;;;;;27.00;15.30;;;10.50;99.90;;;;;;5071997;28;20040;-74
2022/03/21 07:40:17;;;;;;;26.08;16.80;;;10.20;99.90;;;;;;5071244;28;20033;-74
2022/03/21 07:42:44;;;;;;;25.40;16.58;;;9.90;99.90;;;;;;5068929;28;20128;-74
2022/03/21 07:48:01;;;;;;;29.40;18.35;;;9.60;99.90;;;;;;5067835;28;20265;-77
2022/03/21 07:50:27;;;;;;;29.60;17.15;;;9.40;99.90;;;;;;5037041;28;20064;-75
2022/03/21 07:52:54;;;;;;;27.80;17.60;;;9.30;99.90;;;;;;5069866;28;20072;-75
2022/03/21 07:55:21;;;;;;;25.80;16.90;;;9.40;99.90;;;;;;5076998;28;20203;-77
2022/03/21 07:57:47;;;;;;;25.90;16.73;;;9.40;99.90;;;;;;5043753;28;20094;-73
2022/03/21 08:00:14;;;;;;;24.27;16.33;;;9.50;99.90;;;;;;5046082;28;20847;-73
2022/03/21 08:02:44;;;;;;;26.20;16.20;;;9.40;99.90;;;;;;5080211;28;20049;-75
2022/03/21 08:05:11;;;;;;;26.45;14.98;;;9.40;99.90;;;;;;5077108;28;20063;-73
2022/03/21 08:07:36;;;;;;;21.88;15.23;;;9.30;99.90;;;;;;5073086;28;20037;-73
2022/03/21 08:10:06;;;;;;;20.30;14.65;;;9.40;99.90;;;;;;5047359;28;20100;-75
2022/03/21 08:12:32;;;;;;;25.33;15.65;;;9.60;99.90;;;;;;5046494;28;20028;-74
2022/03/21 08:14:59;;;;;;;22.20;14.98;;;9.60;99.90;;;;;;5045526;28;20223;-73
2022/03/21 08:17:26;;;;;;;23.85;15.75;;;9.40;99.90;;;;;;5045451;28;20329;-73
2022/03/21 08:19:52;;;;;;;22.65;14.70;;;9.40;99.90;;;;;;5029050;28;20052;-74
2022/03/21 08:22:19;;;;;;;24.65;15.95;;;9.50;99.90;;;;;;5057884;28;20372;-74
2022/03/21 08:24:45;;;;;;;23.27;14.85;;;9.50;99.90;;;;;;5049172;28;20215;-74
2022/03/21 08:27:11;;;;;;;26.75;15.90;;;9.60;99.90;;;;;;5079271;28;20395;-74
2022/03/21 08:29:39;;;;;;;21.50;15.20;;;9.70;99.90;;;;;;5060432;28;20190;-74
2022/03/21 08:32:06;;;;;;;24.88;15.68;;;9.70;99.90;;;;;;5072384;28;20331;-77
2022/03/21 08:34:32;;;;;;;25.17;16.55;;;9.90;99.90;;;;;;5048582;28;20056;-74
2022/03/21 08:36:57;;;;;;;23.83;14.10;;;9.70;99.90;;;;;;5050799;28;20075;-76
2022/03/21 08:39:23;;;;;;;22.08;14.65;;;9.80;99.90;;;;;;5063389;28;20040;-76
2022/03/21 08:41:50;;;;;;;24.50;14.95;;;10.00;99.90;;;;;;5041357;28;20375;-77
2022/03/21 08:44:19;;;;;;;24.83;16.17;;;10.00;99.90;;;;;;5057760;28;20422;-77
2022/03/21 08:46:45;;;;;;;23.08;15.15;;;10.00;99.90;;;;;;5058292;28;20037;-77
2022/03/21 08:49:23;;;;;;;28.13;15.90;;;10.10;99.90;;;;;;5062762;28;20048;-76
2022/03/21 08:51:49;;;;;;;23.40;15.70;;;10.30;99.90;;;;;;5059941;28;20074;-76
2022/03/21 08:54:15;;;;;;;25.33;16.77;;;10.60;99.90;;;;;;5059647;28;20318;-75
2022/03/21 08:56:40;;;;;;;23.63;15.70;;;10.70;99.90;;;;;;5082609;28;20116;-75
2022/03/21 08:59:06;;;;;;;23.67;16.02;;;10.80;99.90;;;;;;5081637;28;20145;-77
2022/03/21 09:01:32;;;;;;;25.30;15.00;;;10.90;99.90;;;;;;5072201;28;20040;-75
2022/03/21 09:04:01;;;;;;;25.30;16.35;;;10.90;99.90;;;;;;5063829;28;20036;-73
2022/03/21 09:06:26;;;;;;;22.35;14.85;;;11.10;99.90;;;;;;5061957;28;20044;-75
2022/03/21 09:08:52;;;;;;;22.10;14.93;;;11.40;99.90;;;;;;5063031;28;20327;-72
2022/03/21 09:11:18;;;;;;;23.20;15.98;;;11.50;99.90;;;;;;5046540;28;20612;-73
2022/03/21 09:13:45;;;;;;;24.15;14.93;;;11.50;99.90;;;;;;5060205;28;20277;-74
2022/03/21 09:16:12;;;;;;;22.33;14.05;;;11.70;99.90;;;;;;5069766;28;20048;-76
2022/03/21 09:18:39;;;;;;;26.65;15.73;;;11.40;99.90;;;;;;5067121;28;20199;-75
2022/03/21 09:21:05;;;;;;;24.45;15.20;;;11.70;99.90;;;;;;5055442;28;20044;-76
2022/03/21 09:23:31;;;;;;;23.13;15.65;;;12.00;99.90;;;;;;5062953;28;20115;-74
2022/03/21 09:25:57;;;;;;;25.00;15.23;;;12.10;99.90;;;;;;5070266;28;20054;-73
2022/03/21 09:28:22;;;;;;;22.58;15.75;;;12.10;99.90;;;;;;5058896;28;20063;-71
2022/03/21 09:30:48;;;;;;;21.65;15.70;;;12.30;99.90;;;;;;5059209;28;20056;-75
2022/03/21 09:33:16;;;;;;;25.42;16.77;;;12.30;99.90;;;;;;5063527;28;20059;-72
2022/03/21 09:35:47;;;;;;;25.70;15.98;;;12.60;99.90;;;;;;5064837;28;20238;-66
2022/03/21 09:38:14;;;;;;;23.50;15.98;;;12.40;99.90;;;;;;5060951;28;20060;-75
2022/03/21 09:40:42;;;;;;;20.63;15.18;;;12.70;99.90;;;;;;5066336;28;20352;-74
2022/03/21 09:43:08;;;;;;;20.85;15.35;;;12.80;99.90;;;;;;5071845;28;20088;-72
2022/03/21 09:45:36;;;;;;;23.02;15.50;;;13.10;99.90;;;;;;5045614;28;20041;-71
2022/03/21 09:48:10;;;;;;;24.95;16.02;;;13.10;99.90;;;;;;5066492;28;20295;-72
2022/03/21 09:50:40;;;;;;;20.70;15.00;;;13.20;99.90;;;;;;5056675;28;20053;-73
2022/03/21 09:53:07;;;;;;;22.90;17.00;;;13.40;99.90;;;;;;5066432;28;20254;-73
2022/03/21 09:55:33;;;;;;;24.58;16.40;;;13.30;99.90;;;;;;5053466;28;20158;-73
2022/03/21 09:57:59;;;;;;;22.27;16.75;;;13.40;99.90;;;;;;5070962;28;20052;-73
2022/03/21 10:00:26;;;;;;;25.65;16.00;;;13.60;99.90;;;;;;5075542;28;20510;-75
2022/03/21 10:02:53;;;;;;;23.13;15.70;;;13.70;99.90;;;;;;5046568;28;20106;-75
2022/03/21 10:05:31;;;;;;;20.60;16.45;;;13.70;99.90;;;;;;5043331;28;20113;-73
2022/03/21 10:08:20;;;;;;;23.42;16.98;;;13.90;99.90;;;;;;5043563;28;20123;-73
2022/03/21 10:10:57;;;;;;;22.70;15.45;;;14.30;99.90;;;;;;5042807;28;20354;-75
2022/03/21 10:13:26;;;;;;;22.05;14.85;;;14.50;99.90;;;;;;5059234;28;20052;-73
2022/03/21 10:16:12;;;;;;;23.58;16.15;;;14.70;93.70;;;;;;5045609;28;20111;-75
2022/03/21 10:18:55;;;;;;;23.33;17.45;;;14.70;93.10;;;;;;5059467;28;20147;-73
2022/03/21 10:21:27;;;;;;;22.38;15.43;;;14.90;99.90;;;;;;5048671;28;20075;-73
2022/03/21 10:24:10;;;;;;;24.40;17.13;;;15.10;97.50;;;;;;5059289;28;20044;-74
2022/03/21 10:26:46;;;;;;;22.83;16.15;;;14.80;93.10;;;;;;5069668;28;20056;-75
2022/03/21 10:29:12;;;;;;;22.63;16.15;;;14.80;79.70;;;;;;5059239;28;20072;-74
2022/03/21 10:31:45;;;;;;;21.33;15.70;;;14.80;89.60;;;;;;5070425;28;20040;-76
2022/03/21 10:34:19;;;;;;;22.17;14.90;;;14.90;92.50;;;;;;5059040;28;20056;-75
2022/03/21 10:37:01;;;;;;;22.73;15.98;;;15.10;83.60;;;;;;5066563;28;20052;-75
2022/03/21 10:39:28;;;;;;;19.67;14.73;;;14.80;75.10;;;;;;5058667;28;20044;-75
2022/03/21 10:42:06;;;;;;;18.23;14.27;;;14.40;73.60;;;;;;5068779;28;20116;-74
2022/03/21 10:44:33;;;;;;;20.65;14.95;;;14.50;80.50;;;;;;5067006;28;20044;-74
2022/03/21 10:47:05;;;;;;;17.90;14.88;;;15.00;83.90;;;;;;5066655;28;20052;-76
2022/03/21 10:49:42;;;;;;;19.77;13.75;;;15.10;83.10;;;;;;5054226;28;20123;-75
2022/03/21 10:52:08;;;;;;;22.80;16.60;;;14.90;65.10;;;;;;5061836;28;20044;-74
2022/03/21 10:54:46;;;;;;;22.70;15.77;;;14.90;92.10;;;;;;5057742;28;20358;-76
2022/03/21 10:57:26;;;;;;;21.27;15.25;;;15.10;92.90;;;;;;5064285;28;20052;-76
2022/03/21 11:00:11;;;;;;;16.83;12.57;;;15.40;65.40;;;;;;5054052;28;20235;-75
2022/03/21 11:02:47;;;;;;;17.50;13.50;;;15.10;58.40;;;;;;5053977;28;20116;-74
2022/03/21 11:05:13;;;;;;;19.05;14.32;;;14.80;62.30;;;;;;5047538;28;20048;-75
2022/03/21 11:07:39;;;;;;;26.67;13.98;;;14.70;58.40;;;;;;5059395;28;20044;-75
2022/03/21 11:10:06;;;;;;;19.20;14.38;;;15.20;69.10;;;;;;5040736;28;20054;-74
2022/03/21 11:12:33;;;;;;;20.85;15.52;;;15.30;63.20;;;;;;5040637;28;20043;-74
2022/03/21 11:15:01;;;;;;;18.67;15.00;;;15.30;66.10;;;;;;5054649;28;20056;-73
2022/03/21 11:17:27;;;;;;;19.75;16.35;;;15.20;68.70;;;;;;5064199;28;20378;-74
2022/03/21 11:19:53;;;;;;;19.95;14.85;;;15.50;77.00;;;;;;5032424;28;20088;-74
2022/03/21 11:22:19;;;;;;;20.10;15.38;;;15.10;65.60;;;;;;5053090;28;20147;-74
2022/03/21 11:24:45;;;;;;;21.05;14.77;;;15.10;74.50;;;;;;5048390;28;20303;-74
2022/03/21 11:27:35;;;;;;;20.73;15.52;;;15.30;68.70;;;;;;5026870;28;20036;-74
2022/03/21 11:30:36;;;;;;;22.40;15.05;;;15.30;67.40;;;;;;5054632;28;20044;-74
2022/03/21 11:33:32;;;;;;;15.15;12.15;;;15.40;65.60;;;;;;5032262;28;20044;-74
2022/03/21 11:36:07;;;;;;;21.05;15.00;;;15.30;62.10;;;;;;5053248;28;20243;-75
2022/03/21 11:38:47;;;;;;;20.67;14.68;;;15.20;62.60;;;;;;5064307;28;20054;-75
2022/03/21 11:41:21;;;;;;;19.38;14.25;;;15.50;65.70;;;;;;5056129;28;20237;-76
2022/03/21 11:44:06;;;;;;;19.60;13.75;;;15.30;60.00;;;;;;5056410;28;20059;-75
2022/03/21 11:46:34;;;;;;;17.70;13.65;;;15.30;59.70;;;;;;5055294;28;20039;-73
2022/03/21 11:49:25;;;;;;;17.35;12.90;;;15.40;62.00;;;;;;5052726;28;20380;-75
2022/03/21 11:51:55;;;;;;;19.30;14.45;;;15.10;59.00;;;;;;5043392;28;20354;-75
2022/03/21 11:54:36;;;;;;;18.23;14.77;;;15.60;60.60;;;;;;5052603;28;20314;-75
2022/03/21 11:57:09;;;;;;;20.48;14.90;;;15.50;62.80;;;;;;5053174;28;20041;-74
2022/03/21 11:59:34;;;;;;;18.10;14.13;;;15.60;67.50;;;;;;5042658;28;20339;-76
2022/03/21 12:02:22;;;;;;;19.75;13.90;;;15.20;64.30;;;;;;5066191;28;20040;-75
2022/03/21 12:05:05;;;;;;;19.52;14.25;;;14.90;62.40;;;;;;5003481;28;20048;-75
2022/03/21 12:07:32;;;;;;;20.80;14.55;;;15.10;64.20;;;;;;5057966;28;20329;-76
2022/03/21 12:09:58;;;;;;;21.63;14.82;;;15.10;67.40;;;;;;5031697;28;20071;-75
2022/03/21 12:12:39;;;;;;;23.63;16.17;;;15.50;65.80;;;;;;5074792;28;20116;-75
2022/03/21 12:15:33;;;;;;;20.73;15.45;;;15.50;67.90;;;;;;5074748;28;20048;-76
2022/03/21 12:17:58;;;;;;;19.95;14.57;;;15.30;66.40;;;;;;5074708;28;20048;-74
2022/03/21 12:20:24;;;;;;;24.40;17.10;;;15.50;64.10;;;;;;5054684;28;20299;-76
2022/03/21 12:22:53;;;;;;;21.30;15.63;;;15.00;64.70;;;;;;5074045;28;20082;-74
2022/03/21 12:25:28;;;;;;;22.13;14.98;;;15.00;64.10;;;;;;5074111;28;20094;-75
2022/03/21 12:27:59;;;;;;;20.02;14.63;;;15.40;67.40;;;;;;5051480;28;20055;-75
2022/03/21 12:30:31;;;;;;;23.45;16.67;;;15.50;63.60;;;;;;5063203;28;20725;-74
2022/03/21 12:32:59;;;;;;;21.00;15.55;;;15.50;65.20;;;;;;5078730;28;20044;-74
2022/03/21 12:35:45;;;;;;;25.40;16.17;;;15.60;64.30;;;;;;5061530;28;20119;-75
2022/03/21 12:38:20;;;;;;;20.65;15.65;;;15.30;62.50;;;;;;5063482;28;20534;-75
2022/03/21 12:40:53;;;;;;;18.58;14.55;;;15.60;64.10;;;;;;5065119;28;20555;-75
2022/03/21 12:43:27;;;;;;;21.63;14.57;;;15.50;61.10;;;;;;5061498;28;20273;-75
2022/03/21 12:46:09;;;;;;;21.60;15.48;;;15.90;62.60;;;;;;5045417;28;20033;-74
2022/03/21 12:48:40;;;;;;;23.30;15.50;;;15.80;62.50;;;;;;5066106;28;20040;-73
2022/03/21 12:51:07;;;;;;;19.17;15.10;;;16.10;66.60;;;;;;5073803;28;20230;-75
2022/03/21 12:53:39;;;;;;;21.80;14.27;;;16.10;63.00;;;;;;5061179;28;20040;-74
2022/03/21 12:56:08;;;;;;;20.60;15.48;;;15.80;61.20;;;;;;5078609;28;20077;-75
2022/03/21 12:58:35;;;;;;;19.45;15.00;;;16.00;65.40;;;;;;5075710;28;20075;-74
2022/03/21 13:01:03;;;;;;;20.38;14.93;;;15.90;61.80;;;;;;5045530;28;20258;-75
2022/03/21 13:03:29;;;;;;;21.85;15.77;;;16.00;61.50;;;;;;5077317;28;20052;-74